This is the latest recevied weather packets stored in our database for station/object HS1WDC-1. If no packets are shown the sender has not sent any weather packets the latest 10 day(s).
| Time | Temp. | Humidity | Pressure | Rain* | Wind** | Luminosity | Snow |
|---|---|---|---|---|---|---|---|
| 1778335070 | 35° C | 61% | 1007 hPa | - | - | 0 W/m² | - |
| 1778333221 | 35.56° C | 59% | 1007 hPa | - | - | 0 W/m² | - |
| 1778332296 | 35.56° C | 57% | 1007 hPa | - | - | 0 W/m² | - |
| 1778329524 | 36.11° C | 57% | 1006 hPa | - | - | 0 W/m² | - |
| 1778328600 | 36.11° C | 57% | 1006 hPa | - | - | 0 W/m² | - |
| 1778324903 | 36.11° C | 53% | 1005 hPa | - | - | 0 W/m² | - |
| 1778323054 | 36.67° C | 47% | 1005 hPa | - | - | 0 W/m² | - |
| 1778322129 | 37.22° C | 47% | 1005 hPa | - | - | 0 W/m² | - |
| 1778321205 | 38.33° C | 44% | 1005 hPa | - | - | 0 W/m² | - |
| 1778319356 | 38.89° C | 44% | 1004 hPa | - | - | 0 W/m² | - |
| 1778318431 | 38.89° C | 44% | 1004 hPa | - | - | 0 W/m² | - |
| 1778315658 | 38.33° C | 47% | 1005 hPa | - | - | 0 W/m² | - |
| 1778314733 | 38.89° C | 46% | 1005 hPa | - | - | 0 W/m² | - |
| 1778313809 | 38.89° C | 46% | 1006 hPa | - | - | 0 W/m² | - |
| 1778312885 | 38.89° C | 44% | 1006 hPa | - | - | 0 W/m² | - |
| 1778311960 | 38.33° C | 48% | 1006 hPa | - | - | 0 W/m² | - |
| 1778311036 | 38.33° C | 48% | 1006 hPa | - | - | 0 W/m² | - |
| 1778310112 | 38.33° C | 48% | 1007 hPa | - | - | 0 W/m² | - |
| 1778308263 | 37.78° C | 51% | 1008 hPa | - | - | 0 W/m² | - |
| 1778307339 | 36.67° C | 54% | 1008 hPa | - | - | 0 W/m² | - |
| 1778306415 | 36.67° C | 53% | 1008 hPa | - | - | 0 W/m² | - |
| 1778304566 | 36.11° C | 56% | 1009 hPa | - | - | 0 W/m² | - |
| 1778303642 | 36.11° C | 57% | 1009 hPa | - | - | 0 W/m² | - |
| 1778302717 | 35.56° C | 58% | 1009 hPa | - | - | 0 W/m² | - |
| 1778301793 | 35.56° C | 61% | 1010 hPa | - | - | 0 W/m² | - |
* Rain since midnight (hover to see other rain measurements)
** Current wind speed in m/s (hover to see current wind gust speed)